createdAt,value
2022-10-13T00:00:52.016Z,101517.00
2022-10-13T00:03:54.878Z,101526.06
2022-10-13T00:06:58.444Z,101523.78
2022-10-13T00:10:02.519Z,101525.59
2022-10-13T00:13:06.476Z,101527.44
2022-10-13T00:16:10.794Z,101526.41
2022-10-13T00:19:15.174Z,101525.94
2022-10-13T00:22:18.281Z,101525.66
2022-10-13T00:25:21.715Z,101519.19
2022-10-13T00:28:25.305Z,101520.00
2022-10-13T00:31:30.799Z,101519.81
2022-10-13T00:34:33.602Z,101518.88
2022-10-13T00:37:36.503Z,101520.91
2022-10-13T00:40:52.095Z,101514.13
2022-10-13T00:43:57.375Z,101513.13
2022-10-13T00:47:00.324Z,101509.97
2022-10-13T00:50:04.900Z,101511.78
2022-10-13T00:53:10.776Z,101514.34
2022-10-13T00:56:16.457Z,101502.81
2022-10-13T00:59:27.142Z,101500.72
2022-10-13T01:02:35.103Z,101507.69
2022-10-13T01:05:39.701Z,101506.50
2022-10-13T01:08:42.618Z,101501.44
2022-10-13T01:12:24.376Z,101507.72
2022-10-13T01:16:01.726Z,101510.13
2022-10-13T01:19:26.104Z,101509.84
2022-10-13T01:22:28.729Z,101507.00
2022-10-13T01:25:42.989Z,101502.91
2022-10-13T01:28:45.748Z,101498.34
2022-10-13T01:32:06.635Z,101506.63
2022-10-13T01:35:30.816Z,101505.56
2022-10-13T01:38:45.377Z,101503.34
2022-10-13T01:41:52.840Z,101495.13
2022-10-13T01:45:01.801Z,101496.47
2022-10-13T01:48:07.542Z,101488.91
2022-10-13T01:51:20.326Z,101485.63
2022-10-13T01:54:23.057Z,101486.25
2022-10-13T01:57:37.734Z,101487.25
2022-10-13T02:00:48.254Z,101485.72
2022-10-13T02:04:06.547Z,101483.59
2022-10-13T02:07:42.063Z,101473.81
2022-10-13T02:10:54.393Z,101473.19
2022-10-13T02:14:08.212Z,101469.06
2022-10-13T02:17:11.750Z,101466.16
2022-10-13T02:20:18.379Z,101464.31
2022-10-13T02:23:21.848Z,101458.66
2022-10-13T02:26:25.881Z,101462.47
2022-10-13T02:29:52.880Z,101464.69
2022-10-13T02:32:56.840Z,101461.94
2022-10-13T02:36:00.310Z,101460.47
2022-10-13T02:39:03.102Z,101470.13
2022-10-13T02:42:06.340Z,101456.34
2022-10-13T02:45:10.158Z,101461.28
2022-10-13T02:48:12.848Z,101467.31
2022-10-13T02:51:15.604Z,101453.03
2022-10-13T02:54:18.438Z,101458.25
2022-10-13T02:57:21.230Z,101457.00
2022-10-13T03:00:28.380Z,101455.06
2022-10-13T03:03:31.080Z,101457.47
2022-10-13T03:06:34.113Z,101464.22
2022-10-13T03:09:37.070Z,101460.09
2022-10-13T03:12:39.925Z,101469.31
2022-10-13T03:15:42.664Z,101470.69
2022-10-13T03:18:45.686Z,101468.84
2022-10-13T03:21:48.541Z,101465.50
2022-10-13T03:24:51.246Z,101470.78
2022-10-13T03:27:56.163Z,101477.09
2022-10-13T03:31:08.351Z,101472.97
2022-10-13T03:34:12.862Z,101471.69
2022-10-13T03:37:15.726Z,101476.00
2022-10-13T03:40:19.330Z,101472.69
2022-10-13T03:43:23.031Z,101470.88
2022-10-13T03:46:28.876Z,101471.94
2022-10-13T03:49:33.661Z,101475.78
2022-10-13T03:52:36.536Z,101471.47
2022-10-13T03:55:39.233Z,101476.50
2022-10-13T03:58:43.014Z,101471.59
2022-10-13T04:01:45.882Z,101471.28
2022-10-13T04:04:48.697Z,101469.84
2022-10-13T04:07:51.385Z,101464.22
2022-10-13T04:11:06.409Z,101458.28
2022-10-13T04:14:09.274Z,101457.75
2022-10-13T04:17:12.349Z,101451.63
2022-10-13T04:20:15.505Z,101449.34
2022-10-13T04:23:18.883Z,101447.97
2022-10-13T04:26:25.977Z,101460.31
2022-10-13T04:29:29.154Z,101447.44
2022-10-13T04:32:32.654Z,101455.03
2022-10-13T04:35:42.415Z,101457.06
2022-10-13T04:38:45.492Z,101453.44
2022-10-13T04:41:48.216Z,101452.81
2022-10-13T04:44:51.026Z,101458.09
2022-10-13T04:47:57.222Z,101453.28
2022-10-13T04:51:09.511Z,101454.19
2022-10-13T04:54:12.367Z,101457.41
2022-10-13T04:57:15.054Z,101452.94
2022-10-13T05:00:18.134Z,101447.50
2022-10-13T05:03:20.917Z,101452.25
2022-10-13T05:06:26.144Z,101462.13
2022-10-13T05:09:31.333Z,101453.63
2022-10-13T05:12:34.356Z,101467.00
2022-10-13T05:15:39.360Z,101461.31
2022-10-13T05:18:42.964Z,101462.22
2022-10-13T05:21:47.630Z,101461.31
2022-10-13T05:24:50.454Z,101466.16
2022-10-13T05:27:53.447Z,101464.50
2022-10-13T05:30:56.489Z,101476.84
2022-10-13T05:34:00.379Z,101466.34
2022-10-13T05:37:13.843Z,101466.13
2022-10-13T05:40:23.870Z,101458.38
2022-10-13T05:43:36.899Z,101464.78
2022-10-13T05:46:43.730Z,101473.47
2022-10-13T05:49:54.089Z,101472.72
2022-10-13T05:52:57.527Z,101476.09
2022-10-13T05:56:06.525Z,101481.41
2022-10-13T05:59:13.570Z,101492.91
2022-10-13T06:02:25.092Z,101493.78
2022-10-13T06:05:32.495Z,101498.84
2022-10-13T06:08:40.300Z,101501.25
2022-10-13T06:11:45.194Z,101504.97
2022-10-13T06:14:49.005Z,101501.00
2022-10-13T06:17:51.910Z,101508.22
2022-10-13T06:20:54.903Z,101506.06
2022-10-13T06:23:57.972Z,101505.00
2022-10-13T06:27:03.041Z,101506.06
2022-10-13T06:30:08.311Z,101505.94
2022-10-13T06:33:13.021Z,101510.16
2022-10-13T06:36:19.021Z,101513.00
2022-10-13T06:39:21.835Z,101506.88
2022-10-13T06:42:25.008Z,101513.09
2022-10-13T06:45:44.199Z,101510.38
2022-10-13T06:48:58.425Z,101517.63
2022-10-13T06:52:02.969Z,101515.84
2022-10-13T06:55:09.180Z,101508.00
2022-10-13T06:58:12.845Z,101512.59
2022-10-13T07:01:16.049Z,101516.13
2022-10-13T07:04:18.724Z,101509.03
2022-10-13T07:07:24.278Z,101511.31
2022-10-13T07:10:30.360Z,101511.47
2022-10-13T07:13:36.361Z,101504.31
2022-10-13T07:16:40.761Z,101501.31
2022-10-13T07:19:43.554Z,101494.94
2022-10-13T07:22:55.417Z,101500.59
2022-10-13T07:26:02.057Z,101494.25
2022-10-13T07:29:05.166Z,101496.94
2022-10-13T07:32:08.039Z,101492.44
2022-10-13T07:38:31.671Z,101489.72
2022-10-13T07:41:34.889Z,101487.81
2022-10-13T07:44:44.040Z,101484.72
2022-10-13T07:47:47.728Z,101482.66
2022-10-13T07:50:50.968Z,101484.72
2022-10-13T07:53:54.489Z,101486.63
2022-10-13T07:57:00.607Z,101479.66
2022-10-13T08:00:06.169Z,101486.97
2022-10-13T08:03:17.523Z,101477.63
2022-10-13T08:06:21.935Z,101476.84
2022-10-13T08:09:27.626Z,101476.56
2022-10-13T08:12:31.313Z,101475.19
2022-10-13T08:15:35.176Z,101467.31
2022-10-13T08:18:38.014Z,101463.97
2022-10-13T08:22:01.787Z,101453.53
2022-10-13T08:25:07.355Z,101451.44
2022-10-13T08:28:23.964Z,101454.97
2022-10-13T08:31:28.988Z,101444.28
2022-10-13T08:34:39.955Z,101443.69
2022-10-13T08:37:46.120Z,101447.72
2022-10-13T08:40:58.306Z,101446.72
2022-10-13T08:48:20.373Z,101439.47
2022-10-13T08:51:23.295Z,101443.25
2022-10-13T08:54:26.663Z,101446.38
2022-10-13T08:57:29.451Z,101440.69
2022-10-13T09:00:32.279Z,101437.59
2022-10-13T09:03:56.325Z,101432.00
2022-10-13T09:07:10.428Z,101432.22
2022-10-13T09:10:15.574Z,101437.59
2022-10-13T09:13:21.430Z,101428.06
2022-10-13T09:16:39.375Z,101424.84
2022-10-13T09:19:57.207Z,101424.31
2022-10-13T09:23:28.498Z,101429.41
2022-10-13T09:26:36.643Z,101422.19
2022-10-13T09:29:40.132Z,101419.31
2022-10-13T09:32:44.734Z,101430.00
2022-10-13T09:36:11.564Z,101435.63
2022-10-13T09:39:16.525Z,101423.63
2022-10-13T09:42:27.726Z,101423.84
2022-10-13T09:45:33.329Z,101424.75
2022-10-13T09:48:38.226Z,101416.56
2022-10-13T09:51:45.131Z,101415.88
2022-10-13T09:55:00.850Z,101408.84
2022-10-13T09:58:15.316Z,101408.31
2022-10-13T10:01:28.869Z,101395.63
2022-10-13T10:04:38.731Z,101392.06
2022-10-13T10:07:41.728Z,101394.31
2022-10-13T10:10:45.016Z,101393.72
2022-10-13T10:13:47.721Z,101385.25
2022-10-13T10:17:14.315Z,101380.34
2022-10-13T10:20:49.489Z,101378.56
2022-10-13T10:24:07.740Z,101376.91
2022-10-13T10:30:23.511Z,101362.84
2022-10-13T10:33:45.054Z,101360.19
2022-10-13T10:36:55.625Z,101347.16
2022-10-13T10:40:17.110Z,101349.06
2022-10-13T10:43:42.372Z,101351.94
2022-10-13T10:46:49.946Z,101341.84
2022-10-13T10:50:02.310Z,101347.97
2022-10-13T10:53:27.166Z,101338.38
2022-10-13T10:56:37.428Z,101333.31
2022-10-13T11:04:50.395Z,101321.94
2022-10-13T11:07:53.183Z,101318.84
2022-10-13T11:11:32.295Z,101314.22
2022-10-13T11:14:40.535Z,101293.16
2022-10-13T11:17:43.420Z,101293.03
2022-10-13T11:20:58.327Z,101287.34
2022-10-13T11:24:02.190Z,101280.97
2022-10-13T11:27:08.333Z,101288.50
2022-10-13T11:30:47.551Z,101280.06
2022-10-13T11:33:56.316Z,101272.72
2022-10-13T11:37:01.985Z,101266.44
2022-10-13T11:40:25.455Z,101261.47
2022-10-13T11:43:53.201Z,101265.31
2022-10-13T11:47:17.677Z,101251.75
2022-10-13T11:50:33.439Z,101248.44
2022-10-13T11:53:48.682Z,101253.47
2022-10-13T11:56:54.293Z,101247.91
2022-10-13T11:59:57.163Z,101240.50
2022-10-13T12:03:05.376Z,101238.88
2022-10-13T12:06:22.794Z,101240.31
2022-10-13T12:09:26.874Z,101237.53
2022-10-13T12:12:29.702Z,101232.41
2022-10-13T12:15:36.428Z,101235.63
2022-10-13T12:18:41.137Z,101230.97
2022-10-13T12:21:55.850Z,101230.84
2022-10-13T12:25:01.510Z,101216.69
2022-10-13T12:28:04.513Z,101224.28
2022-10-13T12:31:19.664Z,101221.06
2022-10-13T12:34:27.682Z,101218.38
2022-10-13T12:37:36.833Z,101216.06
2022-10-13T12:40:40.037Z,101206.16
2022-10-13T12:43:43.506Z,101216.06
2022-10-13T12:46:55.575Z,101215.72
2022-10-13T12:50:44.898Z,101203.22
2022-10-13T12:53:48.685Z,101204.88
2022-10-13T12:57:01.575Z,101195.06
2022-10-13T13:00:28.736Z,101192.97
2022-10-13T13:03:31.657Z,101188.84
2022-10-13T13:06:37.235Z,101181.78
2022-10-13T13:09:42.891Z,101179.72
2022-10-13T13:12:48.283Z,101182.44
2022-10-13T13:15:51.178Z,101182.00
2022-10-13T13:18:54.042Z,101181.75
2022-10-13T13:21:56.778Z,101178.19
2022-10-13T13:24:59.507Z,101179.38
2022-10-13T13:28:06.921Z,101179.34
2022-10-13T13:31:12.289Z,101163.69
2022-10-13T13:34:15.168Z,101164.06
2022-10-13T13:37:27.757Z,101158.16
2022-10-13T13:40:31.918Z,101158.88
2022-10-13T13:43:37.867Z,101163.06
2022-10-13T13:46:42.105Z,101157.31
2022-10-13T13:49:45.133Z,101157.44
2022-10-13T13:52:48.404Z,101158.38
2022-10-13T13:55:52.266Z,101157.94
2022-10-13T13:58:55.124Z,101152.56
2022-10-13T14:01:57.894Z,101147.88
2022-10-13T14:05:02.305Z,101159.19
2022-10-13T14:08:05.702Z,101152.78
2022-10-13T14:11:08.769Z,101148.09
2022-10-13T14:14:11.510Z,101147.53
2022-10-13T14:17:14.300Z,101150.28
2022-10-13T14:20:17.123Z,101139.50
2022-10-13T14:23:20.470Z,101146.06
2022-10-13T14:26:24.064Z,101142.09
2022-10-13T14:29:26.861Z,101136.81
2022-10-13T14:32:29.631Z,101144.00
2022-10-13T14:35:32.463Z,101135.22
2022-10-13T14:38:35.315Z,101128.22
2022-10-13T14:41:39.131Z,101128.19
2022-10-13T14:44:41.913Z,101132.03
2022-10-13T14:47:44.790Z,101134.34
2022-10-13T14:50:47.817Z,101129.50
2022-10-13T14:53:51.024Z,101133.25
2022-10-13T14:56:53.818Z,101128.06
2022-10-13T15:00:01.643Z,101130.41
2022-10-13T15:03:05.554Z,101134.63
2022-10-13T15:06:16.277Z,101125.81
2022-10-13T15:09:18.995Z,101125.03
2022-10-13T15:12:22.123Z,101129.75
2022-10-13T15:15:25.442Z,101132.91
2022-10-13T15:18:30.931Z,101127.13
2022-10-13T15:21:34.034Z,101125.66
2022-10-13T15:24:37.119Z,101126.38
2022-10-13T15:27:42.021Z,101125.63
2022-10-13T15:30:45.962Z,101128.91
2022-10-13T15:33:52.827Z,101132.56
2022-10-13T15:36:56.484Z,101129.94
2022-10-13T15:39:59.345Z,101121.69
2022-10-13T15:43:02.377Z,101120.69
2022-10-13T15:46:12.427Z,101127.22
2022-10-13T15:49:15.164Z,101139.28
2022-10-13T15:52:18.555Z,101132.22
2022-10-13T15:55:21.573Z,101133.53
2022-10-13T15:58:24.467Z,101131.66
2022-10-13T16:01:28.705Z,101128.94
2022-10-13T16:04:37.169Z,101125.63
2022-10-13T16:07:41.623Z,101133.97
2022-10-13T16:10:44.571Z,101132.41
2022-10-13T16:13:52.612Z,101128.94
2022-10-13T16:20:47.135Z,101121.47
2022-10-13T16:23:49.934Z,101124.28
2022-10-13T16:26:52.693Z,101114.84
2022-10-13T16:29:55.458Z,101123.47
2022-10-13T16:32:58.401Z,101122.06
2022-10-13T16:36:13.559Z,101121.94
2022-10-13T16:39:16.953Z,101120.66
2022-10-13T16:42:20.020Z,101128.09
2022-10-13T16:45:41.334Z,101124.34
2022-10-13T16:48:46.698Z,101126.88
2022-10-13T16:51:49.735Z,101127.00
2022-10-13T16:54:52.671Z,101123.69
2022-10-13T16:57:55.490Z,101130.88
2022-10-13T17:01:08.907Z,101127.34
2022-10-13T17:04:11.783Z,101134.66
2022-10-13T17:07:14.694Z,101126.81
2022-10-13T17:10:17.699Z,101127.34
2022-10-13T17:13:20.492Z,101132.75
2022-10-13T17:16:23.657Z,101138.81
2022-10-13T17:19:26.632Z,101147.34
2022-10-13T17:22:29.622Z,101145.94
2022-10-13T17:25:34.720Z,101141.72
2022-10-13T17:28:39.253Z,101145.63
2022-10-13T17:31:42.948Z,101137.91
2022-10-13T17:34:45.941Z,101137.78
2022-10-13T17:37:50.241Z,101140.66
2022-10-13T17:40:58.886Z,101135.84
2022-10-13T17:44:02.529Z,101139.81
2022-10-13T17:47:05.348Z,101146.88
2022-10-13T17:50:08.572Z,101139.78
2022-10-13T17:53:11.759Z,101146.06
2022-10-13T17:56:18.512Z,101147.38
2022-10-13T17:59:21.442Z,101139.75
2022-10-13T18:02:24.362Z,101140.03
2022-10-13T18:05:27.322Z,101146.88
2022-10-13T18:08:32.957Z,101144.03
2022-10-13T18:11:36.372Z,101143.47
2022-10-13T18:14:39.151Z,101144.72
2022-10-13T18:17:41.974Z,101135.25
2022-10-13T18:20:44.694Z,101142.53
2022-10-13T18:23:47.804Z,101142.16
2022-10-13T18:26:50.782Z,101146.03
2022-10-13T18:29:53.527Z,101145.97
2022-10-13T18:32:57.589Z,101151.88
2022-10-13T18:36:00.882Z,101146.72
2022-10-13T18:39:07.479Z,101150.16
2022-10-13T18:42:10.237Z,101144.34
2022-10-13T18:45:13.015Z,101148.66
2022-10-13T18:48:15.799Z,101140.66
2022-10-13T18:51:20.267Z,101138.97
2022-10-13T18:54:23.123Z,101145.91
2022-10-13T18:57:25.787Z,101143.47
2022-10-13T19:00:28.732Z,101145.91
2022-10-13T19:03:33.798Z,101140.06
2022-10-13T19:06:37.824Z,101145.19
2022-10-13T19:09:40.596Z,101138.59
2022-10-13T19:12:43.413Z,101140.06
2022-10-13T19:15:46.583Z,101153.13
2022-10-13T19:18:50.683Z,101148.38
2022-10-13T19:21:53.589Z,101138.22
2022-10-13T19:24:56.397Z,101134.28
2022-10-13T19:28:00.992Z,101137.84
2022-10-13T19:31:30.968Z,101132.78
2022-10-13T19:34:34.931Z,101129.16
2022-10-13T19:37:39.002Z,101130.03
2022-10-13T19:40:49.644Z,101129.88
2022-10-13T19:43:52.587Z,101130.72
2022-10-13T19:46:57.865Z,101131.38
2022-10-13T19:50:01.766Z,101134.03
2022-10-13T19:53:04.880Z,101142.44
2022-10-13T19:56:08.931Z,101129.97
2022-10-13T19:59:11.909Z,101136.28
2022-10-13T20:02:14.930Z,101135.75
2022-10-13T20:05:20.871Z,101136.22
2022-10-13T20:08:26.172Z,101127.00
2022-10-13T20:11:28.894Z,101127.66
2022-10-13T20:14:31.788Z,101122.78
2022-10-13T20:17:34.497Z,101122.00
2022-10-13T20:20:37.281Z,101126.16
2022-10-13T20:23:41.035Z,101119.88
2022-10-13T20:26:43.735Z,101134.91
2022-10-13T20:29:46.771Z,101135.56
2022-10-13T20:32:49.518Z,101126.97
2022-10-13T20:35:52.503Z,101138.50
2022-10-13T20:38:55.624Z,101131.22
2022-10-13T20:41:58.333Z,101148.69
2022-10-13T20:45:01.104Z,101151.03
2022-10-13T20:48:03.916Z,101137.47
2022-10-13T20:51:10.663Z,101143.78
2022-10-13T20:54:14.979Z,101142.97
2022-10-13T20:57:17.697Z,101137.44
2022-10-13T21:00:22.706Z,101138.84
2022-10-13T21:03:25.908Z,101131.81
2022-10-13T21:06:29.843Z,101133.72
2022-10-13T21:09:36.594Z,101126.25
2022-10-13T21:12:39.327Z,101126.56
2022-10-13T21:15:44.226Z,101119.22
2022-10-13T21:18:49.185Z,101120.47
2022-10-13T21:21:52.111Z,101120.16
2022-10-13T21:24:54.974Z,101122.66
2022-10-13T21:27:58.903Z,101115.50
2022-10-13T21:31:03.240Z,101118.56
2022-10-13T21:34:06.182Z,101122.09
2022-10-13T21:37:09.107Z,101120.47
2022-10-13T21:40:11.937Z,101127.38
2022-10-13T21:43:14.757Z,101125.53
2022-10-13T21:46:32.103Z,101121.03
2022-10-13T21:49:34.874Z,101124.03
2022-10-13T21:52:38.317Z,101118.06
2022-10-13T21:55:41.179Z,101118.06
2022-10-13T21:58:44.264Z,101116.16
2022-10-13T22:01:47.064Z,101117.31
2022-10-13T22:04:49.781Z,101113.56
2022-10-13T22:07:53.223Z,101112.34
2022-10-13T22:10:59.037Z,101105.94
2022-10-13T22:14:02.004Z,101109.00
2022-10-13T22:17:06.859Z,101100.81
2022-10-13T22:20:09.687Z,101100.31
2022-10-13T22:23:12.405Z,101104.50
2022-10-13T22:26:18.799Z,101108.03
2022-10-13T22:29:23.707Z,101106.63
2022-10-13T22:32:26.380Z,101101.97
2022-10-13T22:35:29.130Z,101105.44
2022-10-13T22:38:31.938Z,101099.91
2022-10-13T22:41:37.794Z,101104.22
2022-10-13T22:44:40.673Z,101107.69
2022-10-13T22:47:43.409Z,101106.69
2022-10-13T22:50:46.696Z,101112.22
2022-10-13T22:53:49.993Z,101105.63
2022-10-13T22:56:53.063Z,101104.97
2022-10-13T22:59:55.741Z,101096.16
2022-10-13T23:02:58.400Z,101095.53
2022-10-13T23:06:01.109Z,101093.09
2022-10-13T23:09:06.536Z,101097.75
2022-10-13T23:12:09.310Z,101096.50
2022-10-13T23:15:12.187Z,101087.91
2022-10-13T23:18:15.221Z,101087.78
2022-10-13T23:21:20.431Z,101093.94
2022-10-13T23:24:23.119Z,101083.34
2022-10-13T23:27:25.983Z,101079.88
2022-10-13T23:30:28.825Z,101079.09
2022-10-13T23:33:31.721Z,101079.56
2022-10-13T23:36:34.586Z,101080.00
2022-10-13T23:39:37.499Z,101078.22
2022-10-13T23:42:40.234Z,101085.41
2022-10-13T23:45:42.989Z,101079.69
2022-10-13T23:48:46.182Z,101081.34
2022-10-13T23:51:52.224Z,101080.34
2022-10-13T23:54:55.001Z,101077.69
2022-10-13T23:57:58.890Z,101075.25
